createdAt,value
2017-09-09T00:00:07.339Z,75.32
2017-09-09T00:19:18.142Z,73.51
2017-09-09T00:22:07.218Z,72.66
2017-09-09T00:25:12.427Z,72.89
2017-09-09T00:44:28.178Z,71.79
2017-09-09T00:47:24.951Z,72.45
2017-09-09T00:50:22.403Z,72.39
2017-09-09T00:53:19.875Z,72.48
2017-09-09T01:03:09.519Z,73.03
2017-09-09T01:05:58.394Z,73.35
2017-09-09T01:25:09.174Z,73.82
2017-09-09T01:27:58.363Z,73.92
2017-09-09T01:30:55.372Z,73.64
2017-09-09T01:33:52.229Z,73.44
2017-09-09T01:36:48.987Z,73.58
2017-09-09T01:39:45.907Z,73.76
2017-09-09T01:48:53.470Z,73.07
2017-09-09T01:51:43.106Z,72.96
2017-09-09T02:10:54.752Z,73.86
2017-09-09T02:13:43.971Z,73.75
2017-09-09T02:32:56.078Z,73.84
2017-09-09T02:52:30.614Z,72.55
2017-09-09T02:54:56.419Z,71.78
2017-09-09T02:57:45.331Z,71.94
2017-09-09T03:16:56.399Z,72.94
2017-09-09T03:19:45.195Z,73.00
2017-09-09T03:22:42.316Z,73.04
2017-09-09T03:25:39.927Z,72.94
2017-09-09T03:28:37.020Z,72.71
2017-09-09T03:31:34.575Z,72.39
2017-09-09T03:34:31.606Z,72.60
2017-09-09T03:40:17.943Z,72.88
2017-09-09T03:43:07.526Z,72.81
2017-09-09T04:02:18.271Z,73.04
2017-09-09T04:05:07.656Z,73.76
2017-09-09T04:08:04.679Z,74.00
2017-09-09T04:11:02.560Z,73.42
2017-09-09T04:13:59.686Z,73.73
2017-09-09T04:16:56.771Z,73.41
2017-09-09T04:19:54.182Z,73.17
2017-09-09T04:25:40.619Z,73.57
2017-09-09T04:45:16.458Z,73.84
2017-09-09T04:47:42.267Z,74.23
2017-09-09T04:50:31.002Z,73.53
2017-09-09T04:53:28.414Z,72.81
2017-09-09T05:12:37.740Z,72.79
2017-09-09T05:15:34.579Z,71.89
2017-09-09T05:34:44.075Z,70.49
2017-09-09T05:57:08.829Z,74.48
2017-09-09T06:16:20.171Z,74.95
2017-09-09T06:35:55.656Z,75.14
2017-09-09T06:38:21.406Z,75.07
2017-09-09T06:41:10.939Z,75.40
2017-09-09T06:44:08.060Z,75.51
2017-09-09T06:59:58.803Z,79.79
2017-09-09T07:02:48.216Z,80.78
2017-09-09T07:21:59.038Z,77.61
2017-09-09T07:41:33.861Z,79.15
2017-09-09T07:43:59.647Z,80.36
2017-09-09T07:46:49.289Z,81.10
2017-09-09T08:06:00.123Z,81.35
2017-09-09T08:08:49.367Z,81.67
2017-09-09T08:28:00.251Z,79.05
2017-09-09T08:47:34.567Z,77.75
2017-09-09T08:50:00.379Z,76.00
2017-09-09T08:52:50.099Z,74.54
2017-09-09T08:55:47.590Z,73.54
2017-09-09T09:11:38.480Z,73.08
2017-09-09T09:14:28.451Z,72.45
2017-09-09T09:17:25.235Z,72.56
2017-09-09T09:20:22.483Z,72.31
2017-09-09T09:33:07.997Z,71.31
2017-09-09T09:35:57.635Z,71.17
2017-09-09T09:38:55.002Z,70.59
2017-09-09T09:41:52.196Z,70.73
2017-09-09T09:44:49.931Z,70.79
2017-09-09T09:54:38.903Z,70.01
2017-09-09T09:57:27.871Z,69.57
2017-09-09T10:19:33.968Z,67.57
2017-09-09T10:38:44.801Z,67.27
2017-09-09T10:41:33.659Z,66.85
2017-09-09T10:44:30.750Z,67.21
2017-09-09T10:47:28.050Z,65.32
2017-09-09T10:50:25.378Z,65.30
2017-09-09T10:53:23.019Z,63.97
2017-09-09T11:02:30.419Z,63.49
2017-09-09T11:05:19.483Z,63.32
2017-09-09T11:08:16.599Z,63.08
2017-09-09T11:11:13.507Z,62.38
2017-09-09T11:14:11.338Z,62.42
2017-09-09T11:17:08.343Z,60.91
2017-09-09T11:26:16.647Z,54.68
2017-09-09T11:29:06.212Z,56.62
2017-09-09T11:32:03.017Z,58.90
2017-09-09T11:47:53.830Z,59.23
2017-09-09T11:50:43.207Z,56.54
2017-09-09T11:53:40.541Z,54.70
2017-09-09T11:56:37.603Z,53.75
2017-09-09T11:59:34.538Z,55.17
2017-09-09T12:02:31.927Z,56.69
2017-09-09T12:05:29.702Z,57.48
2017-09-09T12:08:26.843Z,58.24
2017-09-09T12:27:33.575Z,64.13
2017-09-09T12:33:19.892Z,62.63
2017-09-09T12:36:09.238Z,60.94
2017-09-09T12:39:06.283Z,59.53
2017-09-09T12:54:55.539Z,59.86
2017-09-09T12:57:44.979Z,59.12
2017-09-09T13:00:42.321Z,58.08
2017-09-09T13:16:32.894Z,60.92
2017-09-09T13:36:06.467Z,60.30
2017-09-09T13:38:32.255Z,59.66
2017-09-09T13:41:22.019Z,61.24
2017-09-09T13:44:19.099Z,59.79
2017-09-09T13:47:15.931Z,60.22
2017-09-09T13:50:13.457Z,60.47
2017-09-09T13:53:10.311Z,60.43
2017-09-09T14:15:34.685Z,63.78
2017-09-09T14:18:31.554Z,64.72
2017-09-09T14:37:41.010Z,65.94
2017-09-09T14:40:37.825Z,68.72
2017-09-09T14:43:34.872Z,66.73
2017-09-09T14:46:13.798Z,67.54
2017-09-09T14:49:03.493Z,67.22
2017-09-09T14:52:01.144Z,67.17
2017-09-09T15:07:51.387Z,67.74
2017-09-09T15:10:40.888Z,68.32
2017-09-09T15:13:38.007Z,68.47
2017-09-09T15:16:35.394Z,68.51
2017-09-09T15:29:31.787Z,68.85
2017-09-09T15:32:21.519Z,67.92
2017-09-09T15:35:18.715Z,67.95
2017-09-09T15:51:08.381Z,71.77
2017-09-09T15:53:57.788Z,71.98
2017-09-09T15:56:54.662Z,72.26
2017-09-09T16:12:45.182Z,78.46
2017-09-09T16:15:34.750Z,80.38
2017-09-09T16:18:32.400Z,82.99
2017-09-09T16:21:29.438Z,84.30
2017-09-09T16:34:16.287Z,91.19
2017-09-09T16:37:05.098Z,91.52
2017-09-09T16:40:02.331Z,91.47
2017-09-09T16:42:59.999Z,91.55
2017-09-09T16:45:57.083Z,91.76
2017-09-09T16:55:46.858Z,91.73
2017-09-09T16:58:36.652Z,92.93
2017-09-09T17:01:33.474Z,92.25
2017-09-09T17:04:30.507Z,93.54
2017-09-09T17:07:27.625Z,92.32
2017-09-09T17:10:24.703Z,92.95
2017-09-09T17:13:21.685Z,92.56
2017-09-09T17:16:18.694Z,93.41
2017-09-09T17:18:44.445Z,92.35
2017-09-09T17:38:20.226Z,93.52
2017-09-09T17:40:46.003Z,93.58
2017-09-09T17:43:35.036Z,93.45
2017-09-09T18:02:46.616Z,93.70
2017-09-09T18:05:35.591Z,93.68
2017-09-09T18:08:33.404Z,94.48
2017-09-09T18:24:23.719Z,93.50
2017-09-09T18:27:13.203Z,93.94
2017-09-09T18:46:24.677Z,94.69
2017-09-09T18:49:13.646Z,94.87
2017-09-09T19:08:25.330Z,94.97
2017-09-09T19:11:14.358Z,94.91
2017-09-09T19:30:24.599Z,95.46
2017-09-09T19:33:13.896Z,95.46
2017-09-09T19:36:10.902Z,95.78
2017-09-09T19:39:07.755Z,95.13
2017-09-09T19:52:04.129Z,91.64
2017-09-09T19:54:53.291Z,92.13
2017-09-09T19:57:50.287Z,92.40
2017-09-09T20:00:47.944Z,92.51
2017-09-09T20:03:44.940Z,91.81
2017-09-09T20:13:34.221Z,90.60
2017-09-09T20:16:23.119Z,89.82
2017-09-09T20:19:20.262Z,91.25
2017-09-09T20:35:10.173Z,91.68
2017-09-09T20:37:58.992Z,91.55
2017-09-09T20:57:09.062Z,90.35
2017-09-09T21:16:44.872Z,89.00
2017-09-09T21:19:10.651Z,89.75
2017-09-09T21:38:46.016Z,89.41
2017-09-09T21:41:11.822Z,91.20
2017-09-09T22:00:46.199Z,89.26
2017-09-09T22:03:11.962Z,88.75
2017-09-09T22:06:01.332Z,89.22
2017-09-09T22:25:12.594Z,88.01
2017-09-09T22:28:01.859Z,88.11
2017-09-09T22:30:58.851Z,88.82
2017-09-09T22:33:56.016Z,90.32
2017-09-09T22:36:53.291Z,90.45
2017-09-09T22:46:43.995Z,91.00
2017-09-09T22:49:33.709Z,92.47
2017-09-09T22:52:31.416Z,92.65
2017-09-09T22:55:28.789Z,92.72
2017-09-09T22:58:26.316Z,92.52
2017-09-09T23:08:15.329Z,92.57
2017-09-09T23:11:05.130Z,92.56
2017-09-09T23:14:03.071Z,91.67
2017-09-09T23:17:00.755Z,92.27
2017-09-09T23:19:58.175Z,92.53
2017-09-09T23:22:55.427Z,92.28
2017-09-09T23:25:53.060Z,92.38
2017-09-09T23:28:49.810Z,91.99
2017-09-09T23:47:59.212Z,91.26
2017-09-09T23:50:56.675Z,91.75
